Apalachia Observed Data For Previous 48 Hours

Caption
Day and Hour Reservoir Elevation (behind dam)* Tailwater Elevation (below dam)* Average Hourly Discharge*
7/14/2018 2 AM EDT 1,278.28 837.54 98
7/14/2018 3 AM EDT 1,278.23 837.74 67
7/14/2018 4 AM EDT 1,278.26 837.56 685
7/14/2018 5 AM EDT 1,278.20 837.53 55
7/14/2018 6 AM EDT 1,278.20 837.53 55
7/14/2018 7 AM EDT 1,278.23 837.63 60
7/14/2018 8 AM EDT 1,278.17 837.55 680
7/14/2018 9 AM EDT 1,278.12 837.52 55
7/14/2018 10 AM EDT 1,278.16 837.61 59
7/14/2018 11 AM EDT 1,278.12 839.50 1,456
7/14/2018 12 PM EDT 1,278.12 839.34 1,782
7/14/2018 1 PM EDT 1,277.88 839.34 1,789
7/14/2018 2 PM EDT 1,277.76 839.35 1,791
7/14/2018 3 PM EDT 1,277.63 839.35 1,791
7/14/2018 4 PM EDT 1,277.73 839.33 1,798
7/14/2018 5 PM EDT 1,277.73 839.34 1,796
7/14/2018 6 PM EDT 1,278.06 839.36 1,800
7/14/2018 7 PM EDT 1,278.23 839.34 1,793
7/14/2018 8 PM EDT 1,278.62 839.52 1,472
7/14/2018 9 PM EDT 1,278.60 839.53 1,464
7/14/2018 10 PM EDT 1,278.51 839.52 1,469
7/14/2018 11 PM EDT 1,278.51 839.52 1,464
7/15/2018 12 AM EDT 1,278.31 839.50 1,463
7/15/2018 1 AM EDT 1,278.32 839.56 1,463
7/15/2018 2 AM EDT 1,278.18 837.83 96
7/15/2018 3 AM EDT 1,278.15 837.91 59
7/15/2018 4 AM EDT 1,278.15 837.80 702
7/15/2018 5 AM EDT 1,278.17 837.76 55
7/15/2018 6 AM EDT 1,278.14 837.74 55
7/15/2018 7 AM EDT 1,278.14 837.95 69
7/15/2018 8 AM EDT 1,278.15 837.72 685
7/15/2018 9 AM EDT 1,278.10 837.69 55
7/15/2018 10 AM EDT 1,278.11 837.74 59
7/15/2018 11 AM EDT 1,278.00 839.37 1,562
7/15/2018 12 PM EDT 1,278.00 840.57 2,251
7/15/2018 1 PM EDT 1,277.75 840.58 2,879
7/15/2018 2 PM EDT 1,277.52 840.58 2,872
7/15/2018 3 PM EDT 1,277.47 840.58 2,881
7/15/2018 4 PM EDT 1,277.53 840.55 2,873
7/15/2018 5 PM EDT 1,277.53 840.58 2,884
7/15/2018 6 PM EDT 1,277.81 840.57 2,863
7/15/2018 7 PM EDT 1,277.83 840.57 2,860
7/15/2018 8 PM EDT 1,277.76 840.57 2,866
7/15/2018 9 PM EDT 1,277.51 840.57 2,864
7/15/2018 10 PM EDT 1,277.26 840.56 2,869
7/15/2018 11 PM EDT 1,277.19 839.53 1,523
7/16/2018 12 AM EDT 1,277.20 837.59 103
7/16/2018 1 AM EDT 1,277.14 837.58 55
7/16/2018 2 AM EDT 1,277.19 837.84 71

Elevations are in feet above sea level. Discharges are in cubic feet per second and are reported at the end of the hour.